createdAt,value
2022-12-17T00:02:28.927Z,98257.72
2022-12-17T00:05:14.303Z,98243.72
2022-12-17T00:07:59.624Z,98251.72
2022-12-17T00:10:44.793Z,98250.78
2022-12-17T00:13:38.119Z,98258.69
2022-12-17T00:16:24.444Z,98255.22
2022-12-17T00:19:09.555Z,98259.53
2022-12-17T00:21:55.003Z,98263.00
2022-12-17T00:24:42.436Z,98268.28
2022-12-17T00:27:27.682Z,98265.63
2022-12-17T00:30:12.687Z,98259.09
2022-12-17T00:32:57.939Z,98277.13
2022-12-17T00:35:43.147Z,98272.16
2022-12-17T00:38:37.071Z,98283.13
2022-12-17T00:41:22.979Z,98303.28
2022-12-17T00:44:08.133Z,98298.09
2022-12-17T00:46:54.305Z,98299.59
2022-12-17T00:49:41.302Z,98293.06
2022-12-17T00:52:26.616Z,98291.03
2022-12-17T00:55:11.859Z,98310.00
2022-12-17T00:57:57.046Z,98299.47
2022-12-17T01:00:42.356Z,98290.53
2022-12-17T01:03:30.245Z,98314.34
2022-12-17T01:06:19.342Z,98314.34
2022-12-17T01:09:04.484Z,98328.34
2022-12-17T01:11:49.774Z,98332.78
2022-12-17T01:14:34.981Z,98330.97
2022-12-17T01:17:20.899Z,98308.75
2022-12-17T01:20:07.805Z,98324.06
2022-12-17T01:22:53.231Z,98328.34
2022-12-17T01:25:41.679Z,98313.31
2022-12-17T01:28:27.123Z,98329.22
2022-12-17T01:31:15.007Z,98334.47
2022-12-17T01:34:00.691Z,98335.41
2022-12-17T01:36:46.082Z,98334.47
2022-12-17T01:39:31.247Z,98330.03
2022-12-17T01:42:16.611Z,98329.09
2022-12-17T01:45:11.130Z,98332.66
2022-12-17T01:48:07.784Z,98322.66
2022-12-17T01:51:02.030Z,98332.66
2022-12-17T01:54:01.543Z,98285.47
2022-12-17T01:56:47.211Z,98340.56
2022-12-17T01:59:33.046Z,98328.34
2022-12-17T02:02:18.512Z,98335.31
2022-12-17T02:07:47.450Z,98327.41
2022-12-17T02:10:53.291Z,98327.41
2022-12-17T02:13:50.691Z,98327.50
2022-12-17T02:16:39.082Z,98324.75
2022-12-17T02:19:56.421Z,98325.72
2022-12-17T02:22:58.968Z,98323.06
2022-12-17T02:26:04.952Z,98318.66
2022-12-17T02:28:52.998Z,98304.53
2022-12-17T02:31:39.406Z,98290.63
2022-12-17T02:34:28.455Z,98306.31
2022-12-17T02:37:13.816Z,98286.19
2022-12-17T02:39:59.508Z,98285.22
2022-12-17T02:42:46.193Z,98273.34
2022-12-17T02:45:32.687Z,98265.22
2022-12-17T02:48:19.890Z,98266.47
2022-12-17T02:51:05.777Z,98305.72
2022-12-17T02:53:52.232Z,98370.63
2022-12-17T02:56:37.515Z,98388.25
2022-12-17T02:59:22.702Z,98399.84
2022-12-17T03:02:08.509Z,98438.31
2022-12-17T03:04:53.906Z,98451.50
2022-12-17T03:07:39.161Z,98447.06
2022-12-17T03:10:24.770Z,98427.78
2022-12-17T03:13:10.164Z,98405.84
2022-12-17T03:15:55.273Z,98413.75
2022-12-17T03:18:40.647Z,98411.97
2022-12-17T03:21:42.619Z,98417.25
2022-12-17T03:24:27.500Z,98425.03
2022-12-17T03:27:12.363Z,98414.50
2022-12-17T03:29:57.589Z,98406.69
2022-12-17T03:32:42.731Z,98413.53
2022-12-17T03:35:27.882Z,98429.47
2022-12-17T03:38:13.044Z,98417.25
2022-12-17T03:40:58.233Z,98414.69
2022-12-17T03:43:43.175Z,98407.63
2022-12-17T03:46:28.609Z,98408.59
2022-12-17T03:49:13.765Z,98395.00
2022-12-17T03:51:58.871Z,98400.78
2022-12-17T03:54:44.027Z,98395.59
2022-12-17T03:57:28.979Z,98387.81
2022-12-17T04:00:13.999Z,98386.97
2022-12-17T04:02:59.296Z,98400.16
2022-12-17T04:05:44.479Z,98407.19
2022-12-17T04:08:29.570Z,98408.16
2022-12-17T04:11:14.733Z,98420.47
2022-12-17T04:13:59.939Z,98416.38
2022-12-17T04:16:45.123Z,98427.56
2022-12-17T04:19:30.426Z,98405.59
2022-12-17T04:22:15.611Z,98402.97
2022-12-17T04:25:01.030Z,98416.25
2022-12-17T04:27:45.875Z,98418.06
2022-12-17T04:30:31.193Z,98418.06
2022-12-17T04:33:16.282Z,98425.97
2022-12-17T04:36:01.516Z,98423.34
2022-12-17T04:38:46.753Z,98419.00
2022-12-17T04:41:31.891Z,98416.38
2022-12-17T04:44:17.013Z,98433.97
2022-12-17T04:47:02.177Z,98439.44
2022-12-17T04:49:47.466Z,98446.31
2022-12-17T04:52:32.533Z,98436.16
2022-12-17T04:55:17.813Z,98450.09
2022-12-17T04:58:03.233Z,98458.66
2022-12-17T05:00:48.426Z,98456.09
2022-12-17T05:03:34.850Z,98451.88
2022-12-17T05:06:20.341Z,98458.72
2022-12-17T05:09:05.535Z,98470.19
2022-12-17T05:11:51.495Z,98472.94
2022-12-17T05:14:36.704Z,98478.09
2022-12-17T05:17:21.990Z,98481.72
2022-12-17T05:20:07.177Z,98477.38
2022-12-17T05:22:52.473Z,98480.84
2022-12-17T05:25:37.655Z,98492.34
2022-12-17T05:28:22.648Z,98479.56
2022-12-17T05:31:12.738Z,98487.16
2022-12-17T05:33:58.707Z,98460.88
2022-12-17T05:36:44.439Z,98478.50
2022-12-17T05:39:29.996Z,98456.47
2022-12-17T05:44:43.998Z,98483.78
2022-12-17T05:47:29.196Z,98490.97
2022-12-17T05:50:14.500Z,98497.06
2022-12-17T05:52:59.605Z,98501.50
2022-12-17T05:56:04.661Z,98476.38
2022-12-17T05:58:49.829Z,98515.63
2022-12-17T06:01:35.172Z,98512.13
2022-12-17T06:04:20.753Z,98502.44
2022-12-17T06:07:06.042Z,98507.81
2022-12-17T06:09:51.167Z,98513.09
2022-12-17T06:12:46.798Z,98504.06
2022-12-17T06:15:32.217Z,98521.00
2022-12-17T06:18:17.650Z,98522.03
2022-12-17T06:21:03.274Z,98535.00
2022-12-17T06:23:48.849Z,98524.75
2022-12-17T06:26:44.468Z,98534.63
2022-12-17T06:29:29.587Z,98553.31
2022-12-17T06:32:14.722Z,98555.88
2022-12-17T06:35:00.361Z,98560.19
2022-12-17T06:37:48.180Z,98548.72
2022-12-17T06:40:33.309Z,98547.78
2022-12-17T06:43:18.495Z,98560.09
2022-12-17T06:46:03.524Z,98576.66
2022-12-17T06:48:48.757Z,98592.38
2022-12-17T06:51:34.002Z,98548.53
2022-12-17T06:54:19.194Z,98609.84
2022-12-17T06:57:04.472Z,98631.69
2022-12-17T06:59:49.767Z,98630.84
2022-12-17T07:02:34.915Z,98634.44
2022-12-17T07:05:20.411Z,98643.09
2022-12-17T07:08:14.592Z,98631.31
2022-12-17T07:10:59.839Z,98653.41
2022-12-17T07:13:44.776Z,98660.38
2022-12-17T07:16:30.478Z,98662.16
2022-12-17T07:19:15.779Z,98661.16
2022-12-17T07:22:00.921Z,98653.31
2022-12-17T07:24:46.000Z,98636.53
2022-12-17T07:27:31.091Z,98652.28
2022-12-17T07:30:16.490Z,98663.69
2022-12-17T07:33:01.762Z,98645.81
2022-12-17T07:35:46.936Z,98668.84
2022-12-17T07:38:32.260Z,98668.00
2022-12-17T07:41:18.171Z,98683.72
2022-12-17T07:44:03.417Z,98686.25
2022-12-17T07:46:48.591Z,98685.41
2022-12-17T07:49:33.626Z,98696.78
2022-12-17T07:52:18.944Z,98691.53
2022-12-17T07:55:04.007Z,98707.34
2022-12-17T07:57:49.138Z,98704.91
2022-12-17T08:00:34.330Z,98703.88
2022-12-17T08:03:20.264Z,98696.41
2022-12-17T08:06:25.347Z,98715.34
2022-12-17T08:09:10.596Z,98706.69
2022-12-17T08:11:55.720Z,98719.84
2022-12-17T08:14:40.911Z,98727.88
2022-12-17T08:17:26.636Z,98722.69
2022-12-17T08:20:11.910Z,98727.09
2022-12-17T08:22:57.559Z,98731.53
2022-12-17T08:25:42.838Z,98741.31
2022-12-17T08:28:49.521Z,98742.19
2022-12-17T08:31:33.943Z,98758.00
2022-12-17T08:34:19.199Z,98756.19
2022-12-17T08:37:04.712Z,98765.81
2022-12-17T08:39:49.927Z,98765.69
2022-12-17T08:42:35.266Z,98777.09
2022-12-17T08:45:20.596Z,98769.81
2022-12-17T08:48:05.601Z,98765.31
2022-12-17T08:50:50.798Z,98775.75
2022-12-17T08:53:36.287Z,98769.66
2022-12-17T08:56:22.008Z,98786.97
2022-12-17T08:59:07.335Z,98791.28
2022-12-17T09:01:52.757Z,98789.41
2022-12-17T09:04:37.802Z,98794.59
2022-12-17T09:07:23.092Z,98791.03
2022-12-17T09:10:08.422Z,98786.50
2022-12-17T09:12:53.675Z,98772.34
2022-12-17T09:15:38.612Z,98761.81
2022-12-17T09:18:23.678Z,98756.53
2022-12-17T09:21:13.430Z,98767.88
2022-12-17T09:23:58.998Z,98761.66
2022-12-17T09:26:44.495Z,98766.00
2022-12-17T09:29:29.844Z,98766.00
2022-12-17T09:32:15.082Z,98772.97
2022-12-17T09:35:00.365Z,98772.00
2022-12-17T09:37:45.651Z,98763.47
2022-12-17T09:40:41.744Z,98753.28
2022-12-17T09:43:41.989Z,98788.69
2022-12-17T09:46:44.972Z,98795.66
2022-12-17T09:49:41.223Z,98792.25
2022-12-17T09:52:42.834Z,98786.81
2022-12-17T09:55:36.242Z,98789.44
2022-12-17T09:58:22.622Z,98782.84
2022-12-17T10:01:08.958Z,98801.66
2022-12-17T10:03:54.702Z,98802.63
2022-12-17T10:06:46.988Z,98797.38
2022-12-17T10:09:35.393Z,98793.38
2022-12-17T10:12:38.514Z,98817.47
2022-12-17T10:15:25.828Z,98818.47
2022-12-17T10:18:11.199Z,98808.84
2022-12-17T10:21:15.430Z,98811.38
2022-12-17T10:24:01.178Z,98795.84
2022-12-17T10:26:51.789Z,98821.00
2022-12-17T10:29:47.123Z,98822.69
2022-12-17T10:32:32.879Z,98815.72
2022-12-17T10:35:21.064Z,98803.56
2022-12-17T10:38:07.475Z,98807.91
2022-12-17T10:40:53.203Z,98809.13
2022-12-17T10:43:45.982Z,98820.88
2022-12-17T10:46:40.378Z,98830.59
2022-12-17T10:49:42.868Z,98835.09
2022-12-17T10:52:49.330Z,98839.25
2022-12-17T10:55:46.299Z,98831.31
2022-12-17T10:58:47.141Z,98799.19
2022-12-17T11:02:01.502Z,98847.16
2022-12-17T11:04:50.133Z,98840.00
2022-12-17T11:07:40.213Z,98838.13
2022-12-17T11:10:34.632Z,98839.44
2022-12-17T11:13:58.989Z,98856.38
2022-12-17T11:16:53.404Z,98857.25
2022-12-17T11:20:04.328Z,98852.03
2022-12-17T11:23:17.997Z,98857.16
2022-12-17T11:26:19.611Z,98866.66
2022-12-17T11:29:04.971Z,98866.56
2022-12-17T11:31:58.197Z,98870.06
2022-12-17T11:35:08.470Z,98877.75
2022-12-17T11:38:40.376Z,98876.91
2022-12-17T11:41:25.451Z,98879.34
2022-12-17T11:44:13.693Z,98881.06
2022-12-17T11:47:23.817Z,98876.53
2022-12-17T11:50:40.401Z,98878.25
2022-12-17T11:53:56.507Z,98878.13
2022-12-17T11:56:51.690Z,98874.06
2022-12-17T11:59:55.915Z,98885.28
2022-12-17T12:02:45.116Z,98886.59
2022-12-17T12:06:11.784Z,98891.78
2022-12-17T12:09:35.928Z,98891.78
2022-12-17T12:12:36.467Z,98899.63
2022-12-17T12:15:28.383Z,98891.59
2022-12-17T12:18:21.593Z,98885.47
2022-12-17T12:21:28.314Z,98908.25
2022-12-17T12:24:40.943Z,98917.88
2022-12-17T12:27:57.735Z,98928.34
2022-12-17T12:30:48.247Z,98933.53
2022-12-17T12:33:59.345Z,98939.53
2022-12-17T12:36:45.859Z,98937.66
2022-12-17T12:39:36.152Z,98943.78
2022-12-17T12:42:24.929Z,98946.41
2022-12-17T12:45:33.736Z,98938.81
2022-12-17T12:48:32.705Z,98955.59
2022-12-17T12:51:35.828Z,98954.06
2022-12-17T12:54:50.091Z,98964.59
2022-12-17T12:57:52.199Z,98972.84
2022-12-17T13:00:55.733Z,98984.22
2022-12-17T13:03:50.265Z,98988.00
2022-12-17T13:06:41.792Z,98983.75
2022-12-17T13:09:23.502Z,98997.00
2022-12-17T13:11:56.611Z,98972.69
2022-12-17T13:14:29.261Z,99006.06
2022-12-17T13:16:55.830Z,99009.63
2022-12-17T13:19:31.485Z,99009.75
2022-12-17T13:22:20.269Z,98994.66
2022-12-17T13:24:57.279Z,99003.97
2022-12-17T13:27:35.854Z,99014.34
2022-12-17T13:30:17.733Z,99015.38
2022-12-17T13:33:24.935Z,99019.06
2022-12-17T13:35:54.281Z,99031.47
2022-12-17T13:38:39.880Z,99034.22
2022-12-17T13:41:13.898Z,99031.66
2022-12-17T13:43:57.680Z,99041.44
2022-12-17T13:46:24.267Z,99045.03
2022-12-17T13:48:57.466Z,99043.31
2022-12-17T13:51:27.097Z,99047.75
2022-12-17T13:53:57.658Z,99050.50
2022-12-17T13:56:27.690Z,99047.41
2022-12-17T13:58:56.263Z,99067.25
2022-12-17T14:01:23.435Z,99072.59
2022-12-17T14:04:11.190Z,99076.19
2022-12-17T14:06:38.739Z,99076.25
2022-12-17T14:09:05.972Z,99083.31
2022-12-17T14:11:52.187Z,99064.78
2022-12-17T14:14:38.952Z,99088.66
2022-12-17T14:17:06.171Z,99092.31
2022-12-17T14:19:33.560Z,99106.44
2022-12-17T14:22:01.458Z,99086.53
2022-12-17T14:24:29.434Z,99103.91
2022-12-17T14:27:00.033Z,99110.09
2022-12-17T14:29:29.355Z,99115.44
2022-12-17T14:32:01.979Z,99119.97
2022-12-17T14:34:29.950Z,99119.97
2022-12-17T14:37:00.694Z,99128.03
2022-12-17T14:39:30.786Z,99115.28
2022-12-17T14:42:25.180Z,99128.03
2022-12-17T14:44:58.855Z,99123.00
2022-12-17T14:47:27.129Z,99136.88
2022-12-17T14:50:12.038Z,99143.94
2022-12-17T14:52:47.452Z,99138.09
2022-12-17T14:55:23.358Z,99144.09
2022-12-17T14:57:51.244Z,99155.59
2022-12-17T15:00:18.699Z,99154.75
2022-12-17T15:05:01.715Z,99149.06
2022-12-17T15:07:31.908Z,99165.38
2022-12-17T15:10:10.580Z,99171.66
2022-12-17T15:12:37.159Z,99167.34
2022-12-17T15:15:03.954Z,99177.03
2022-12-17T15:17:30.580Z,99177.03
2022-12-17T15:19:57.075Z,99178.81
2022-12-17T15:22:24.030Z,99161.13
2022-12-17T15:24:50.626Z,99175.56
2022-12-17T15:27:20.234Z,99193.88
2022-12-17T15:29:46.784Z,99203.53
2022-12-17T15:32:23.571Z,99200.06
2022-12-17T15:34:50.627Z,99204.47
2022-12-17T15:37:21.028Z,99196.81
2022-12-17T15:39:51.319Z,99207.09
2022-12-17T15:42:36.568Z,99206.38
2022-12-17T15:45:03.371Z,99209.00
2022-12-17T15:47:30.822Z,99212.56
2022-12-17T15:49:57.384Z,99211.69
2022-12-17T15:52:24.071Z,99199.63
2022-12-17T15:54:50.655Z,99211.78
2022-12-17T15:57:18.901Z,99219.69
2022-12-17T15:59:45.752Z,99217.97
2022-12-17T16:02:12.883Z,99225.06
2022-12-17T16:04:40.844Z,99214.41
2022-12-17T16:07:07.589Z,99237.44
2022-12-17T16:09:35.005Z,99232.28
2022-12-17T16:12:01.569Z,99241.94
2022-12-17T16:14:29.153Z,99242.03
2022-12-17T16:16:55.683Z,99253.44
2022-12-17T16:19:22.315Z,99232.16
2022-12-17T16:21:49.243Z,99250.94
2022-12-17T16:24:15.933Z,99252.75
2022-12-17T16:26:42.688Z,99256.31
2022-12-17T16:29:09.497Z,99266.75
2022-12-17T16:31:36.129Z,99262.41
2022-12-17T16:34:08.036Z,99265.06
2022-12-17T16:36:34.681Z,99265.97
2022-12-17T16:39:01.231Z,99272.91
2022-12-17T16:41:28.387Z,99274.66
2022-12-17T16:43:55.017Z,99257.88
2022-12-17T16:46:31.225Z,99291.25
2022-12-17T16:49:06.048Z,99274.75
2022-12-17T16:51:33.145Z,99286.22
2022-12-17T16:53:59.751Z,99278.41
2022-12-17T16:56:28.338Z,99285.44
2022-12-17T16:58:55.602Z,99293.34
2022-12-17T17:01:28.385Z,99296.06
2022-12-17T17:03:56.354Z,99290.97
2022-12-17T17:06:23.407Z,99303.13
2022-12-17T17:08:50.394Z,99305.75
2022-12-17T17:11:19.308Z,99312.81
2022-12-17T17:13:45.876Z,99321.63
2022-12-17T17:16:12.562Z,99312.88
2022-12-17T17:18:39.841Z,99303.06
2022-12-17T17:21:18.787Z,99328.78
2022-12-17T17:23:51.127Z,99297.94
2022-12-17T17:26:17.854Z,99314.44
2022-12-17T17:28:47.219Z,99328.84
2022-12-17T17:31:15.400Z,99332.34
2022-12-17T17:33:44.784Z,99338.75
2022-12-17T17:36:25.960Z,99332.75
2022-12-17T17:38:55.882Z,99350.94
2022-12-17T17:41:24.874Z,99357.16
2022-12-17T17:43:56.373Z,99356.19
2022-12-17T17:46:23.182Z,99357.38
2022-12-17T17:48:56.666Z,99355.75
2022-12-17T17:53:49.572Z,99375.66
2022-12-17T17:56:30.729Z,99356.06
2022-12-17T17:59:12.091Z,99394.16
2022-12-17T18:01:42.291Z,99376.88
2022-12-17T18:04:13.152Z,99388.19
2022-12-17T18:06:57.544Z,99394.16
2022-12-17T18:09:29.613Z,99398.50
2022-12-17T18:11:56.167Z,99409.13
2022-12-17T18:14:22.747Z,99399.44
2022-12-17T18:16:49.291Z,99385.66
2022-12-17T18:19:21.874Z,99402.84
2022-12-17T18:21:48.809Z,99402.84
2022-12-17T18:24:18.452Z,99396.31
2022-12-17T18:26:46.897Z,99416.03
2022-12-17T18:31:47.109Z,99373.50
2022-12-17T18:34:19.506Z,99422.00
2022-12-17T18:36:46.487Z,99432.69
2022-12-17T18:39:21.589Z,99438.66
2022-12-17T18:42:07.968Z,99449.09
2022-12-17T18:44:37.947Z,99449.09
2022-12-17T18:47:07.885Z,99458.72
2022-12-17T18:49:34.991Z,99437.16
2022-12-17T18:52:01.826Z,99446.63
2022-12-17T18:54:30.362Z,99442.13
2022-12-17T18:57:01.949Z,99453.34
2022-12-17T18:59:30.550Z,99454.22
2022-12-17T19:01:58.624Z,99457.72
2022-12-17T19:04:26.403Z,99459.50
2022-12-17T19:06:53.661Z,99449.41
2022-12-17T19:09:29.017Z,99462.44
2022-12-17T19:11:56.582Z,99473.50
2022-12-17T19:14:24.093Z,99473.50
2022-12-17T19:16:52.688Z,99461.56
2022-12-17T19:19:19.995Z,99472.69
2022-12-17T19:21:46.693Z,99468.31
2022-12-17T19:24:16.123Z,99490.19
2022-12-17T19:26:44.110Z,99478.09
2022-12-17T19:29:12.329Z,99499.94
2022-12-17T19:31:39.663Z,99488.06
2022-12-17T19:34:10.980Z,99495.59
2022-12-17T19:36:38.747Z,99461.84
2022-12-17T19:39:08.717Z,99506.94
2022-12-17T19:41:35.679Z,99522.75
2022-12-17T19:44:05.583Z,99520.09
2022-12-17T19:46:35.110Z,99515.06
2022-12-17T19:49:02.490Z,99530.63
2022-12-17T19:51:30.752Z,99530.63
2022-12-17T19:54:00.704Z,99527.22
2022-12-17T19:56:33.665Z,99514.63
2022-12-17T19:59:03.270Z,99544.66
2022-12-17T20:01:32.497Z,99535.13
2022-12-17T20:03:59.957Z,99542.94
2022-12-17T20:06:29.773Z,99545.56
2022-12-17T20:08:57.931Z,99538.34
2022-12-17T20:11:34.051Z,99530.53
2022-12-17T20:14:26.603Z,99555.28
2022-12-17T20:17:00.161Z,99561.47
2022-12-17T20:19:34.781Z,99564.31
2022-12-17T20:22:07.719Z,99566.91
2022-12-17T20:24:37.521Z,99568.66
2022-12-17T20:27:04.369Z,99590.53
2022-12-17T20:29:31.145Z,99593.16
2022-12-17T20:34:27.260Z,99594.94
2022-12-17T20:36:54.760Z,99599.63
2022-12-17T20:39:26.668Z,99610.81
2022-12-17T20:41:54.033Z,99617.88
2022-12-17T20:44:20.648Z,99626.69
2022-12-17T20:46:47.812Z,99623.22
2022-12-17T20:49:14.721Z,99626.78
2022-12-17T20:51:42.058Z,99618.88
2022-12-17T20:54:10.289Z,99630.34
2022-12-17T20:56:38.657Z,99621.84
2022-12-17T20:59:07.548Z,99638.31
2022-12-17T21:01:36.818Z,99641.88
2022-12-17T21:04:04.489Z,99648.91
2022-12-17T21:06:36.977Z,99648.19
2022-12-17T21:09:04.898Z,99630.81
2022-12-17T21:11:34.680Z,99647.41
2022-12-17T21:14:07.225Z,99652.53
2022-12-17T21:16:34.767Z,99650.81
2022-12-17T21:19:02.460Z,99650.19
2022-12-17T21:21:32.787Z,99645.13
2022-12-17T21:24:00.886Z,99658.09
2022-12-17T21:26:32.720Z,99663.34
2022-12-17T21:29:00.649Z,99672.13
2022-12-17T21:31:38.267Z,99668.78
2022-12-17T21:34:07.263Z,99669.78
2022-12-17T21:36:37.215Z,99676.53
2022-12-17T21:39:09.095Z,99684.41
2022-12-17T21:42:01.905Z,99680.94
2022-12-17T21:44:32.222Z,99679.59
2022-12-17T21:46:58.890Z,99695.88
2022-12-17T21:49:25.670Z,99695.88
2022-12-17T21:51:52.632Z,99700.22
2022-12-17T21:54:20.130Z,99694.13
2022-12-17T21:56:50.045Z,99700.22
2022-12-17T21:59:17.007Z,99709.78
2022-12-17T22:01:43.953Z,99713.31
2022-12-17T22:04:11.143Z,99714.13
2022-12-17T22:06:41.190Z,99721.19
2022-12-17T22:09:10.429Z,99716.91
2022-12-17T22:11:44.976Z,99722.09
2022-12-17T22:14:18.937Z,99709.41
2022-12-17T22:16:49.268Z,99736.00
2022-12-17T22:19:22.995Z,99740.34
2022-12-17T22:21:57.673Z,99740.38
2022-12-17T22:24:25.386Z,99737.09
2022-12-17T22:26:59.970Z,99750.78
2022-12-17T22:29:45.980Z,99755.16
2022-12-17T22:32:31.276Z,99749.88
2022-12-17T22:37:28.156Z,99745.44
2022-12-17T22:41:12.593Z,99736.06
2022-12-17T22:44:32.173Z,99749.81
2022-12-17T22:44:41.009Z,99749.88
2022-12-17T22:46:16.670Z,99750.78
2022-12-17T22:48:43.302Z,99759.44
2022-12-17T22:51:30.201Z,99761.97
2022-12-17T22:54:00.924Z,99758.44
2022-12-17T22:57:02.908Z,99735.28
2022-12-17T22:59:18.656Z,99774.16
2022-12-17T23:01:45.483Z,99757.97
2022-12-17T23:04:14.727Z,99781.16
2022-12-17T23:06:45.063Z,99781.16
2022-12-17T23:09:13.577Z,99786.34
2022-12-17T23:11:40.289Z,99791.59
2022-12-17T23:14:11.577Z,99798.59
2022-12-17T23:16:39.617Z,99794.31
2022-12-17T23:19:07.117Z,99801.16
2022-12-17T23:21:35.084Z,99800.22
2022-12-17T23:24:01.879Z,99796.88
2022-12-17T23:26:31.315Z,99804.59
2022-12-17T23:29:02.202Z,99786.56
2022-12-17T23:31:32.625Z,99804.59
2022-12-17T23:33:59.733Z,99806.31
2022-12-17T23:36:27.727Z,99814.22
2022-12-17T23:38:56.425Z,99822.03
2022-12-17T23:41:29.027Z,99815.94
2022-12-17T23:43:57.072Z,99820.28
2022-12-17T23:46:25.418Z,99823.75
2022-12-17T23:48:52.505Z,99833.56
2022-12-17T23:51:21.311Z,99821.59
2022-12-17T23:53:47.960Z,99843.03
2022-12-17T23:56:20.518Z,99843.91
2022-12-17T23:58:47.970Z,99855.25
